Time;durP1;ratioP1;P1;durP2;ratioP2;P2;SDS_P1;SDS_P2;PMS_P1;PMS_P2;Temp;Humidity;BMP_temperature;BMP_pressure;BME280_temperature;BME280_humidity;BME280_pressure;Samples;Min_cycle;Max_cycle;Signal;HPM_P1;HPM_P2
2022/04/17 00:01:46;;;;;;;2.23;2.00;;;13.00;34.80;;;;;;4994306;28;20450;-87
2022/04/17 00:04:15;;;;;;;4.10;2.40;;;13.00;35.40;;;;;;4989204;28;20485;-86
2022/04/17 00:06:42;;;;;;;3.23;2.43;;;13.00;34.10;;;;;;4980684;28;20451;-85
2022/04/17 00:09:09;;;;;;;3.50;2.53;;;12.90;34.80;;;;;;4974111;28;20476;-86
2022/04/17 00:11:36;;;;;;;2.13;2.03;;;12.80;35.10;;;;;;4974631;28;20959;-89
2022/04/17 00:14:03;;;;;;;6.83;2.17;;;12.80;35.10;;;;;;4982618;28;20444;-88
2022/04/17 00:16:30;;;;;;;2.90;2.60;;;12.80;35.10;;;;;;4964292;28;20472;-85
2022/04/17 00:18:57;;;;;;;2.80;2.37;;;12.60;34.90;;;;;;4967335;28;20479;-86
2022/04/17 00:21:25;;;;;;;3.33;1.93;;;12.60;35.40;;;;;;4997320;28;20451;-85
2022/04/17 00:23:52;;;;;;;2.90;1.83;;;12.50;34.70;;;;;;4995344;28;20467;-87
2022/04/17 00:26:19;;;;;;;3.17;2.03;;;12.30;34.70;;;;;;4992273;28;21119;-88
2022/04/17 00:28:46;;;;;;;2.77;2.50;;;12.00;35.30;;;;;;4994139;28;20893;-85
2022/04/17 00:31:13;;;;;;;2.20;2.00;;;11.90;35.80;;;;;;4995302;28;20459;-87
2022/04/17 00:33:40;;;;;;;2.37;2.00;;;11.90;35.70;;;;;;5073466;28;20441;-86
2022/04/17 00:36:07;;;;;;;5.87;2.67;;;12.00;36.00;;;;;;4990916;28;20463;-89
2022/04/17 00:38:36;;;;;;;3.90;2.40;;;12.00;36.30;;;;;;4996609;28;20490;-86
2022/04/17 00:41:03;;;;;;;3.30;2.60;;;12.00;35.90;;;;;;4998353;28;20491;-86
2022/04/17 00:43:32;;;;;;;2.83;2.30;;;12.00;36.10;;;;;;4997684;28;20443;-87
2022/04/17 00:46:00;;;;;;;4.03;2.20;;;11.90;36.10;;;;;;4980864;28;20463;-86
2022/04/17 00:48:27;;;;;;;3.00;2.80;;;12.00;35.90;;;;;;4988179;28;20470;-86
2022/04/17 00:50:57;;;;;;;2.47;2.17;;;12.00;36.20;;;;;;4984901;28;20444;-85
2022/04/17 00:53:25;;;;;;;2.80;2.40;;;12.00;35.90;;;;;;4986895;28;20458;-86
2022/04/17 00:55:54;;;;;;;2.40;2.20;;;11.90;36.00;;;;;;4979071;28;20458;-88
2022/04/17 00:58:21;;;;;;;3.30;2.60;;;11.90;36.30;;;;;;4996134;28;20471;-87
2022/04/17 01:00:48;;;;;;;2.33;2.10;;;11.90;36.80;;;;;;4995981;28;20440;-88
2022/04/17 01:03:17;;;;;;;2.93;2.37;;;12.00;36.40;;;;;;4996877;28;20439;-86
2022/04/17 01:05:46;;;;;;;4.33;2.77;;;11.90;36.40;;;;;;4977678;28;20457;-87
2022/04/17 01:08:14;;;;;;;2.47;2.27;;;11.80;35.90;;;;;;4992345;28;20476;-89
2022/04/17 01:10:42;;;;;;;2.80;2.30;;;11.60;36.30;;;;;;4998578;28;20526;-88
2022/04/17 01:13:10;;;;;;;2.80;2.20;;;11.30;36.90;;;;;;4998841;28;21107;-86
2022/04/17 01:15:38;;;;;;;2.47;2.27;;;11.20;37.60;;;;;;4992852;28;20463;-86
2022/04/17 01:18:08;;;;;;;3.10;1.90;;;11.20;37.00;;;;;;4976222;28;20490;-86
2022/04/17 01:20:38;;;;;;;2.50;2.27;;;11.10;37.00;;;;;;4992014;28;21252;-88
2022/04/17 01:28:40;;;;;;;4.70;2.40;;;11.10;36.80;;;;;;4990641;28;21009;-88
2022/04/17 01:31:12;;;;;;;3.87;2.20;;;11.20;37.20;;;;;;4963909;28;20457;-89
2022/04/17 01:33:41;;;;;;;4.33;2.33;;;11.20;36.80;;;;;;4982013;28;20461;-88
2022/04/17 01:36:11;;;;;;;2.60;2.40;;;11.20;37.30;;;;;;4978524;28;21000;-86
2022/04/17 01:38:41;;;;;;;3.23;2.70;;;11.20;38.00;;;;;;4997950;28;20464;-86
2022/04/17 01:41:12;;;;;;;5.17;2.70;;;11.30;38.30;;;;;;4981102;28;20474;-87
2022/04/17 01:43:41;;;;;;;5.40;2.90;;;11.30;38.30;;;;;;4992471;28;20462;-86
2022/04/17 01:46:10;;;;;;;2.67;2.30;;;11.40;38.10;;;;;;4970020;28;20551;-85
2022/04/17 01:48:38;;;;;;;4.27;2.53;;;11.40;38.20;;;;;;4993553;28;21042;-85
2022/04/17 01:51:10;;;;;;;2.73;2.33;;;11.40;38.10;;;;;;4996927;28;20603;-86
2022/04/17 01:53:39;;;;;;;5.33;2.53;;;11.20;37.80;;;;;;5000597;28;20456;-89
2022/04/17 01:56:12;;;;;;;4.17;2.67;;;11.00;37.30;;;;;;4981599;28;20483;-86
2022/04/17 01:58:40;;;;;;;2.63;2.17;;;10.90;37.50;;;;;;4980208;28;20464;-87
2022/04/17 02:01:09;;;;;;;2.17;2.00;;;10.90;38.20;;;;;;4994181;28;21460;-86
2022/04/17 02:03:40;;;;;;;4.50;2.43;;;10.80;38.40;;;;;;4969064;28;20578;-87
2022/04/17 02:06:10;;;;;;;2.93;2.73;;;10.30;39.00;;;;;;4999061;28;20447;-86
2022/04/17 02:08:38;;;;;;;4.80;2.60;;;9.60;41.20;;;;;;4994346;28;21051;-87
2022/04/17 02:11:06;;;;;;;6.50;3.60;;;9.70;41.90;;;;;;4976152;28;20452;-86
2022/04/17 02:13:36;;;;;;;3.10;2.17;;;10.00;40.10;;;;;;4994713;28;20440;-85
2022/04/17 02:16:04;;;;;;;4.47;2.00;;;10.20;40.20;;;;;;4962207;28;20470;-85
2022/04/17 02:18:32;;;;;;;6.17;2.60;;;10.30;39.80;;;;;;4984330;28;20480;-87
2022/04/17 02:21:01;;;;;;;2.50;2.30;;;10.10;39.60;;;;;;4982804;28;20517;-86
2022/04/17 02:23:29;;;;;;;2.83;2.50;;;10.10;39.90;;;;;;4969840;28;20432;-86
2022/04/17 02:25:57;;;;;;;4.00;2.70;;;10.10;40.10;;;;;;4977811;28;20489;-86
2022/04/17 02:28:27;;;;;;;4.10;3.07;;;10.10;40.00;;;;;;4985259;28;20467;-89
2022/04/17 02:30:57;;;;;;;2.50;2.27;;;10.00;39.90;;;;;;4980535;28;20441;-86
2022/04/17 02:33:25;;;;;;;2.60;2.17;;;10.00;39.50;;;;;;4966079;28;20450;-86
2022/04/17 02:35:54;;;;;;;3.73;2.67;;;10.00;39.90;;;;;;4997175;28;20447;-87
2022/04/17 02:38:23;;;;;;;3.97;2.77;;;10.10;40.50;;;;;;4994422;28;20857;-87
2022/04/17 02:40:52;;;;;;;3.40;2.53;;;10.10;40.20;;;;;;4992275;28;20471;-88
2022/04/17 02:43:20;;;;;;;3.50;2.60;;;10.10;40.40;;;;;;4966197;28;20452;-87
2022/04/17 02:45:51;;;;;;;2.70;2.50;;;10.20;40.40;;;;;;4979233;28;20962;-93
2022/04/17 02:48:22;;;;;;;2.93;2.73;;;10.20;39.50;;;;;;4998363;28;20463;-87
2022/04/17 02:50:52;;;;;;;2.47;2.27;;;10.30;39.60;;;;;;4999316;28;21312;-88
2022/04/17 02:53:21;;;;;;;3.20;2.60;;;10.30;39.70;;;;;;4982213;28;20992;-86
2022/04/17 02:55:49;;;;;;;2.67;2.20;;;10.30;40.00;;;;;;4993741;28;20436;-85
2022/04/17 02:58:18;;;;;;;3.30;3.00;;;10.20;39.80;;;;;;4984514;28;20471;-86
2022/04/17 03:06:20;;;;;;;4.30;2.73;;;10.10;40.00;;;;;;4983296;28;20450;-86
2022/04/17 03:08:50;;;;;;;2.83;2.57;;;10.10;40.00;;;;;;4979251;28;20460;-91
2022/04/17 03:11:18;;;;;;;2.80;2.60;;;9.80;40.70;;;;;;4995482;28;21298;-86
2022/04/17 03:13:48;;;;;;;3.10;2.47;;;9.40;41.60;;;;;;5000119;28;20504;-86
2022/04/17 03:16:16;;;;;;;4.40;2.80;;;9.10;42.40;;;;;;4984028;28;20459;-86
2022/04/17 03:18:46;;;;;;;2.37;2.13;;;8.80;43.10;;;;;;4995632;28;20476;-86
2022/04/17 03:21:13;;;;;;;4.03;3.50;;;9.00;43.70;;;;;;4981903;28;20821;-86
2022/04/17 03:23:43;;;;;;;4.37;2.70;;;9.20;42.50;;;;;;4995121;28;20855;-86
2022/04/17 03:26:11;;;;;;;5.80;2.67;;;9.40;42.90;;;;;;4982959;28;20534;-86
2022/04/17 03:28:40;;;;;;;3.10;2.40;;;9.70;42.30;;;;;;4979524;28;20494;-87
2022/04/17 03:31:08;;;;;;;4.33;2.83;;;9.80;41.60;;;;;;4986226;28;20452;-86
2022/04/17 03:33:37;;;;;;;2.87;2.67;;;10.00;40.80;;;;;;4981734;28;20437;-91
2022/04/17 03:36:07;;;;;;;3.60;3.27;;;10.10;40.60;;;;;;4993242;28;20436;-88
2022/04/17 03:38:34;;;;;;;3.23;2.60;;;10.10;40.70;;;;;;4975247;28;20468;-86
2022/04/17 03:41:02;;;;;;;2.67;2.43;;;10.00;40.80;;;;;;4991557;28;20452;-86
2022/04/17 03:43:30;;;;;;;2.47;2.20;;;9.90;41.70;;;;;;4992340;28;20443;-88
2022/04/17 03:45:59;;;;;;;4.57;2.53;;;9.80;41.90;;;;;;4995107;28;20492;-86
2022/04/17 03:48:27;;;;;;;8.77;3.17;;;9.80;41.80;;;;;;4983903;28;21231;-86
2022/04/17 03:50:56;;;;;;;3.10;2.40;;;9.80;41.20;;;;;;4963259;28;20459;-88
2022/04/17 03:53:26;;;;;;;2.60;2.37;;;9.60;41.50;;;;;;4984783;28;20462;-86
2022/04/17 03:55:55;;;;;;;2.93;2.60;;;9.10;42.90;;;;;;4963483;28;20448;-87
2022/04/17 03:58:22;;;;;;;3.40;2.60;;;8.60;44.00;;;;;;4980145;28;20481;-86
2022/04/17 04:00:52;;;;;;;3.30;2.30;;;8.40;45.30;;;;;;4991677;28;20444;-85
2022/04/17 04:03:21;;;;;;;4.93;3.20;;;8.40;44.70;;;;;;4994209;28;20444;-85
2022/04/17 04:05:49;;;;;;;3.47;2.10;;;8.30;44.60;;;;;;4990606;28;20455;-86
2022/04/17 04:08:17;;;;;;;3.50;2.30;;;7.90;45.40;;;;;;4999706;28;20479;-85
2022/04/17 04:10:46;;;;;;;3.20;2.87;;;7.60;46.20;;;;;;4999497;28;20540;-86
2022/04/17 04:13:14;;;;;;;3.60;2.93;;;7.50;46.50;;;;;;4965925;28;20774;-87
2022/04/17 04:15:43;;;;;;;3.03;2.70;;;7.40;46.60;;;;;;4966239;28;20451;-86
2022/04/17 04:18:11;;;;;;;3.10;2.70;;;7.60;46.30;;;;;;4995025;28;20503;-85
2022/04/17 04:20:41;;;;;;;3.40;2.70;;;7.90;46.00;;;;;;5014370;28;20447;-86
2022/04/17 04:23:10;;;;;;;3.10;2.37;;;8.30;45.50;;;;;;4993372;28;20463;-86
2022/04/17 04:25:40;;;;;;;4.10;2.87;;;8.60;45.00;;;;;;4997077;28;21065;-86
2022/04/17 04:30:55;;;;;;;3.60;3.00;;;9.00;43.70;;;;;;4995267;28;20447;-85
2022/04/17 04:33:24;;;;;;;4.03;2.80;;;9.10;43.50;;;;;;4992149;28;20500;-86
2022/04/17 04:35:53;;;;;;;3.50;2.40;;;9.20;43.30;;;;;;4980754;28;20458;-86
2022/04/17 04:38:21;;;;;;;2.63;2.33;;;9.30;43.00;;;;;;4982331;28;20561;-86
2022/04/17 04:40:49;;;;;;;5.63;3.30;;;9.30;42.80;;;;;;4981456;28;20454;-86
2022/04/17 04:43:19;;;;;;;3.07;2.73;;;9.30;42.50;;;;;;4965357;28;20943;-87
2022/04/17 04:51:20;;;;;;;10.40;7.50;;;8.70;44.00;;;;;;4996735;28;20443;-88
2022/04/17 04:53:49;;;;;;;12.27;6.97;;;8.70;44.90;;;;;;4988888;28;20446;-88
2022/04/17 04:56:17;;;;;;;14.80;9.43;;;8.80;44.70;;;;;;4998344;28;20450;-87
2022/04/17 04:58:47;;;;;;;15.80;10.70;;;8.90;44.40;;;;;;4995494;28;20884;-86
2022/04/17 05:01:15;;;;;;;8.30;6.30;;;9.10;44.30;;;;;;4973013;28;20494;-87
2022/04/17 05:03:43;;;;;;;8.00;4.87;;;9.00;44.20;;;;;;4975974;28;20539;-89
2022/04/17 05:06:11;;;;;;;3.30;2.60;;;9.10;44.40;;;;;;4984793;28;20481;-86
2022/04/17 05:08:38;;;;;;;5.30;2.90;;;9.10;44.70;;;;;;4982328;28;20460;-87
2022/04/17 05:11:06;;;;;;;3.67;2.70;;;9.00;44.80;;;;;;4995236;28;20448;-86
2022/04/17 05:13:35;;;;;;;4.50;3.73;;;9.00;44.60;;;;;;4994857;28;20447;-86
2022/04/17 05:16:05;;;;;;;7.70;4.27;;;9.10;44.80;;;;;;5000206;28;20444;-87
2022/04/17 05:18:32;;;;;;;5.30;3.80;;;9.10;44.80;;;;;;4978203;28;21146;-87
2022/04/17 05:21:02;;;;;;;3.30;3.00;;;9.10;45.10;;;;;;4978935;28;20494;-87
2022/04/17 05:23:31;;;;;;;3.30;3.00;;;9.10;45.30;;;;;;4978750;28;20451;-86
2022/04/17 05:26:00;;;;;;;4.27;2.97;;;9.10;45.30;;;;;;4980609;28;21166;-89
2022/04/17 05:28:29;;;;;;;2.77;2.57;;;9.20;44.90;;;;;;4965954;28;20464;-86
2022/04/17 05:30:57;;;;;;;3.60;3.30;;;9.10;44.90;;;;;;4978184;28;20825;-90
2022/04/17 05:33:27;;;;;;;5.23;3.57;;;8.90;45.50;;;;;;4964055;28;20540;-86
2022/04/17 05:35:55;;;;;;;6.33;3.10;;;9.00;45.90;;;;;;4972374;28;20452;-90
2022/04/17 05:38:23;;;;;;;6.77;3.93;;;9.00;45.80;;;;;;4978513;28;20554;-87
2022/04/17 05:40:53;;;;;;;4.27;3.97;;;9.10;45.80;;;;;;4977290;28;20551;-88
2022/04/17 05:43:22;;;;;;;4.03;3.70;;;9.20;45.40;;;;;;4964437;28;21003;-88
2022/04/17 05:45:50;;;;;;;4.90;4.17;;;9.20;45.40;;;;;;4994925;28;21059;-92
2022/04/17 05:48:19;;;;;;;5.67;3.77;;;9.20;45.50;;;;;;4977856;28;20591;-87
2022/04/17 05:50:49;;;;;;;2.90;2.70;;;9.30;45.60;;;;;;4976146;28;20456;-90
2022/04/17 05:53:18;;;;;;;6.70;4.00;;;9.40;45.30;;;;;;4972756;28;20527;-85
2022/04/17 05:55:46;;;;;;;4.30;3.90;;;9.40;45.20;;;;;;5011873;28;20548;-86
2022/04/17 05:58:15;;;;;;;4.27;3.73;;;9.40;45.20;;;;;;4970215;28;20494;-87
2022/04/17 06:00:44;;;;;;;2.77;2.53;;;9.40;45.10;;;;;;4975753;28;20449;-87
2022/04/17 06:03:15;;;;;;;7.87;3.70;;;9.50;45.30;;;;;;4977028;28;21058;-87
2022/04/17 06:05:44;;;;;;;3.73;3.10;;;9.50;45.20;;;;;;4988979;28;20441;-87
2022/04/17 06:08:14;;;;;;;4.97;4.13;;;9.50;45.10;;;;;;4986362;28;20464;-90
2022/04/17 06:10:42;;;;;;;3.47;3.20;;;9.50;45.00;;;;;;4975987;28;20460;-89
2022/04/17 06:13:10;;;;;;;4.87;3.07;;;9.40;44.70;;;;;;4967505;28;20924;-87
2022/04/17 06:15:39;;;;;;;3.93;3.30;;;9.40;44.30;;;;;;4990747;28;20539;-86
2022/04/17 06:18:07;;;;;;;4.93;3.20;;;9.40;44.80;;;;;;4963564;28;20479;-88
2022/04/17 06:20:34;;;;;;;6.07;5.30;;;9.50;45.00;;;;;;4972463;28;20479;-86
2022/04/17 06:23:02;;;;;;;5.83;4.73;;;9.50;45.70;;;;;;4991099;28;20478;-89
2022/04/17 06:25:33;;;;;;;4.80;4.40;;;9.50;46.00;;;;;;4978490;28;20995;-86
2022/04/17 06:28:01;;;;;;;5.60;4.40;;;9.60;45.60;;;;;;4992675;28;21150;-86
2022/04/17 06:30:29;;;;;;;5.10;4.70;;;9.70;45.50;;;;;;4975951;28;20551;-87
2022/04/17 06:32:57;;;;;;;5.70;3.80;;;9.70;45.20;;;;;;4984751;28;21201;-87
2022/04/17 06:35:26;;;;;;;7.20;4.67;;;9.80;45.20;;;;;;4975707;28;20440;-87
2022/04/17 06:37:55;;;;;;;5.87;4.37;;;9.80;45.20;;;;;;4981414;28;20500;-87
2022/04/17 06:40:26;;;;;;;4.90;4.43;;;9.90;45.10;;;;;;4988464;28;20440;-86
2022/04/17 06:42:58;;;;;;;4.50;4.10;;;10.00;44.20;;;;;;4980342;28;20451;-86
2022/04/17 06:45:27;;;;;;;7.60;4.97;;;10.00;44.10;;;;;;4963264;28;20455;-87
2022/04/17 06:47:55;;;;;;;4.70;3.53;;;10.00;44.20;;;;;;4968647;28;20476;-87
2022/04/17 06:50:25;;;;;;;6.20;4.00;;;9.90;44.10;;;;;;4974235;28;20478;-88
2022/04/17 06:52:53;;;;;;;4.50;3.60;;;9.70;44.50;;;;;;4960342;28;20456;-89
2022/04/17 06:55:22;;;;;;;17.27;3.90;;;9.70;44.30;;;;;;4966363;28;20449;-91
2022/04/17 06:57:51;;;;;;;4.10;3.30;;;9.80;44.30;;;;;;4966435;28;20491;-88
2022/04/17 07:00:22;;;;;;;9.20;4.73;;;10.00;43.20;;;;;;4974419;28;20451;-89
2022/04/17 07:02:52;;;;;;;5.20;4.33;;;10.10;43.60;;;;;;4990827;28;20447;-90
2022/04/17 07:05:21;;;;;;;5.43;4.23;;;10.20;43.30;;;;;;4988935;28;20448;-86
2022/04/17 07:07:57;;;;;;;6.53;3.50;;;10.20;43.90;;;;;;4990758;28;20472;-87
2022/04/17 07:10:26;;;;;;;4.30;3.90;;;10.40;43.70;;;;;;4994381;28;20449;-86
2022/04/17 07:12:54;;;;;;;6.50;3.57;;;10.40;43.60;;;;;;4993470;28;20455;-88
2022/04/17 07:15:27;;;;;;;3.80;3.40;;;10.60;43.40;;;;;;4980874;28;20466;-88
2022/04/17 07:17:56;;;;;;;5.73;3.87;;;10.60;43.50;;;;;;4993873;28;20476;-87
2022/04/17 07:20:25;;;;;;;4.23;3.87;;;10.80;43.60;;;;;;4991644;28;20440;-88
2022/04/17 07:22:55;;;;;;;4.60;3.30;;;10.90;43.20;;;;;;4994241;28;20445;-86
2022/04/17 07:25:24;;;;;;;6.13;4.10;;;11.00;43.20;;;;;;4965170;28;20452;-86
2022/04/17 07:27:54;;;;;;;6.97;3.50;;;11.10;43.20;;;;;;4982755;28;20534;-86
2022/04/17 07:30:27;;;;;;;3.40;3.00;;;11.20;43.10;;;;;;4977613;28;20542;-86
2022/04/17 07:32:57;;;;;;;3.60;3.17;;;11.40;43.50;;;;;;4978766;28;20548;-86
2022/04/17 07:35:27;;;;;;;3.23;2.93;;;11.40;43.30;;;;;;4981867;28;20425;-86
2022/04/17 07:37:56;;;;;;;4.10;3.70;;;11.40;43.10;;;;;;4977829;28;20474;-88
2022/04/17 07:40:26;;;;;;;4.40;3.10;;;11.50;43.10;;;;;;4978695;28;20458;-86
2022/04/17 07:42:55;;;;;;;3.70;3.30;;;11.70;43.50;;;;;;4990811;28;20439;-86
2022/04/17 07:45:24;;;;;;;4.07;3.27;;;12.00;42.40;;;;;;4991793;28;20452;-88
2022/04/17 07:47:53;;;;;;;3.23;2.93;;;12.10;41.20;;;;;;4983939;28;20563;-87
2022/04/17 07:50:23;;;;;;;3.93;2.90;;;12.10;41.00;;;;;;4993088;28;20801;-86
2022/04/17 07:52:51;;;;;;;6.70;3.00;;;12.20;39.20;;;;;;4994404;28;20440;-88
2022/04/17 07:55:19;;;;;;;4.00;2.80;;;12.10;39.80;;;;;;4966523;28;20445;-87
2022/04/17 07:58:01;;;;;;;3.20;2.90;;;12.30;39.10;;;;;;4972923;28;20480;-86
2022/04/17 08:00:32;;;;;;;5.00;2.57;;;12.50;39.10;;;;;;5007425;28;20433;-86
2022/04/17 08:03:10;;;;;;;4.63;2.80;;;12.70;38.70;;;;;;4992296;28;20991;-90
2022/04/17 08:05:37;;;;;;;3.13;2.83;;;12.80;38.40;;;;;;5059174;28;20452;-86
2022/04/17 08:08:08;;;;;;;3.43;2.70;;;12.80;37.80;;;;;;4958404;28;20460;-87
2022/04/17 08:10:37;;;;;;;4.20;3.13;;;12.90;38.50;;;;;;4992596;28;20936;-87
2022/04/17 08:13:06;;;;;;;3.00;2.70;;;12.90;38.50;;;;;;4990293;28;20444;-86
2022/04/17 08:15:35;;;;;;;2.80;2.33;;;13.00;37.10;;;;;;4986164;28;20536;-86
2022/04/17 08:18:06;;;;;;;3.13;2.83;;;13.40;37.80;;;;;;4986952;28;20483;-87
2022/04/17 08:20:34;;;;;;;4.17;2.57;;;13.50;37.30;;;;;;4971707;28;20504;-86
2022/04/17 08:23:02;;;;;;;3.73;2.50;;;13.80;36.70;;;;;;4972443;28;21293;-86
2022/04/17 08:25:32;;;;;;;4.50;2.50;;;13.80;35.40;;;;;;4988549;28;20456;-86
2022/04/17 08:28:02;;;;;;;4.00;2.90;;;14.00;35.80;;;;;;4988321;28;20976;-86
2022/04/17 08:30:31;;;;;;;11.23;8.23;;;14.20;35.50;;;;;;4977053;28;20479;-87
2022/04/17 08:33:01;;;;;;;5.77;4.90;;;14.30;34.90;;;;;;4992572;28;20550;-87
2022/04/17 08:35:32;;;;;;;3.30;2.77;;;14.30;34.80;;;;;;4984668;28;20533;-88
2022/04/17 08:38:00;;;;;;;4.07;2.50;;;14.00;35.40;;;;;;4959801;28;20553;-88
2022/04/17 08:40:29;;;;;;;2.17;1.97;;;14.10;35.80;;;;;;4988256;28;20459;-91
2022/04/17 08:42:58;;;;;;;3.00;2.70;;;14.30;34.70;;;;;;4992285;28;20456;-87
2022/04/17 08:45:28;;;;;;;3.10;2.23;;;14.40;34.30;;;;;;4992486;28;20467;-87
2022/04/17 08:47:57;;;;;;;3.77;3.40;;;14.40;34.00;;;;;;4963950;28;20494;-87
2022/04/17 08:50:25;;;;;;;3.47;3.10;;;14.70;34.20;;;;;;4980401;28;20447;-88
2022/04/17 08:52:55;;;;;;;3.03;2.60;;;14.70;33.90;;;;;;4973610;28;20460;-87
2022/04/17 08:55:24;;;;;;;3.60;3.30;;;14.90;32.90;;;;;;4989598;28;20558;-88
2022/04/17 08:57:52;;;;;;;5.07;4.67;;;15.00;32.40;;;;;;4973947;28;20470;-89
2022/04/17 09:00:20;;;;;;;5.10;4.67;;;15.00;31.90;;;;;;4991680;28;20471;-87
2022/04/17 09:02:49;;;;;;;3.33;3.00;;;14.80;31.70;;;;;;4981126;28;20444;-88
2022/04/17 09:05:20;;;;;;;5.00;2.57;;;15.00;32.10;;;;;;4986338;28;20468;-89
2022/04/17 09:07:50;;;;;;;2.60;2.40;;;15.20;32.30;;;;;;4997397;28;20479;-90
2022/04/17 09:10:27;;;;;;;4.03;2.97;;;15.30;32.10;;;;;;4981416;28;20428;-87
2022/04/17 09:12:56;;;;;;;4.00;2.57;;;15.40;30.40;;;;;;4988664;28;20958;-88
2022/04/17 09:15:25;;;;;;;2.80;2.43;;;15.40;31.50;;;;;;4985115;28;20825;-89
2022/04/17 09:17:54;;;;;;;2.60;2.20;;;15.60;30.30;;;;;;4984590;28;20464;-89
2022/04/17 09:20:24;;;;;;;2.57;2.37;;;15.80;30.60;;;;;;4992980;28;20495;-87
2022/04/17 09:22:54;;;;;;;2.40;1.90;;;16.10;30.60;;;;;;4986459;28;20445;-89
2022/04/17 09:25:25;;;;;;;3.93;2.10;;;16.30;29.70;;;;;;4976188;28;20501;-88
2022/04/17 09:28:01;;;;;;;2.40;2.20;;;16.50;29.30;;;;;;4970520;28;21009;-87
2022/04/17 09:30:32;;;;;;;2.40;2.20;;;16.50;29.10;;;;;;4992576;28;20850;-91
2022/04/17 09:33:04;;;;;;;3.47;2.47;;;16.40;30.00;;;;;;4976556;28;20463;-88
2022/04/17 09:35:34;;;;;;;2.43;2.23;;;16.40;29.00;;;;;;4975499;28;20459;-86
2022/04/17 09:38:06;;;;;;;3.90;2.63;;;16.10;29.00;;;;;;4969895;28;20471;-91
2022/04/17 09:40:37;;;;;;;3.60;2.50;;;15.80;29.90;;;;;;4979449;28;20545;-90
2022/04/17 09:43:09;;;;;;;2.90;2.60;;;16.30;29.90;;;;;;4974859;28;21221;-87
2022/04/17 09:45:58;;;;;;;2.47;2.27;;;16.60;28.30;;;;;;4988157;28;20440;-86
2022/04/17 09:48:30;;;;;;;3.80;2.40;;;16.80;28.40;;;;;;4991061;28;20495;-87
2022/04/17 09:50:58;;;;;;;5.50;2.60;;;16.90;29.10;;;;;;4981503;28;20497;-88
2022/04/17 09:53:35;;;;;;;3.33;1.90;;;17.30;29.30;;;;;;4982825;28;20510;-87
2022/04/17 09:56:11;;;;;;;2.57;2.10;;;17.60;28.90;;;;;;4978108;28;20455;-87
2022/04/17 09:58:48;;;;;;;2.80;2.00;;;17.10;27.70;;;;;;4972888;28;20618;-86
2022/04/17 10:01:18;;;;;;;2.40;2.20;;;17.10;27.40;;;;;;4990392;28;20480;-88
2022/04/17 10:03:48;;;;;;;2.43;2.23;;;17.30;27.30;;;;;;4977432;28;20457;-89
2022/04/17 10:06:17;;;;;;;2.93;2.60;;;17.60;27.20;;;;;;4982274;28;20448;-91
2022/04/17 10:08:46;;;;;;;5.67;2.00;;;17.80;26.70;;;;;;4977531;28;20567;-87
2022/04/17 10:11:16;;;;;;;7.13;4.00;;;17.60;26.30;;;;;;4987546;28;20471;-89
2022/04/17 10:13:45;;;;;;;10.00;4.10;;;17.80;26.70;;;;;;4985303;28;20555;-86
2022/04/17 10:16:20;;;;;;;2.70;1.90;;;18.20;26.40;;;;;;4985883;28;20550;-89
2022/04/17 10:18:49;;;;;;;19.73;11.60;;;18.50;25.20;;;;;;4958895;28;20468;-88
2022/04/17 10:21:22;;;;;;;9.00;5.30;;;18.30;26.00;;;;;;4991449;28;20497;-87
2022/04/17 10:24:00;;;;;;;3.67;2.30;;;18.40;25.50;;;;;;4963773;28;20530;-89
2022/04/17 10:26:33;;;;;;;3.70;2.07;;;18.40;25.40;;;;;;4986458;28;20459;-88
2022/04/17 10:29:03;;;;;;;9.30;4.90;;;18.20;25.80;;;;;;4960820;28;21265;-89
2022/04/17 10:31:43;;;;;;;2.97;2.40;;;18.70;25.50;;;;;;4974095;28;20807;-88
2022/04/17 10:34:33;;;;;;;3.67;2.70;;;18.90;25.80;;;;;;4979140;28;20538;-89
2022/04/17 10:37:19;;;;;;;3.20;2.03;;;19.10;26.20;;;;;;4976040;28;21008;-88
2022/04/17 10:39:51;;;;;;;2.70;1.80;;;19.00;25.00;;;;;;4990608;28;20468;-90
2022/04/17 10:42:22;;;;;;;2.30;2.00;;;19.40;25.30;;;;;;4974819;28;20459;-88
2022/04/17 10:45:02;;;;;;;3.33;2.07;;;19.50;24.60;;;;;;4975462;28;20462;-88
2022/04/17 10:47:31;;;;;;;3.03;1.90;;;19.30;25.40;;;;;;4986599;28;20471;-88
2022/04/17 10:50:00;;;;;;;3.13;2.60;;;19.20;24.90;;;;;;4979253;28;21077;-88
2022/04/17 10:52:29;;;;;;;1.80;1.70;;;18.80;25.10;;;;;;4981049;28;20540;-89
2022/04/17 10:55:10;;;;;;;3.73;2.03;;;18.90;25.80;;;;;;4987350;28;20878;-89
2022/04/17 10:57:47;;;;;;;1.87;1.77;;;19.30;24.40;;;;;;4965610;28;20908;-87
2022/04/17 11:00:28;;;;;;;2.40;2.20;;;19.50;24.60;;;;;;4978112;28;20482;-88
2022/04/17 11:03:00;;;;;;;3.50;1.93;;;19.40;25.20;;;;;;4977607;28;20975;-88
2022/04/17 11:08:21;;;;;;;2.80;1.77;;;19.90;25.20;;;;;;4977891;28;20472;-89
2022/04/17 11:10:54;;;;;;;2.60;2.30;;;20.30;25.30;;;;;;4973061;28;20865;-89
2022/04/17 11:13:26;;;;;;;2.93;2.23;;;20.30;23.60;;;;;;5049035;28;20470;-89
2022/04/17 11:15:58;;;;;;;2.60;1.67;;;19.80;23.70;;;;;;4975684;28;20453;-91
2022/04/17 11:18:28;;;;;;;2.10;1.90;;;20.10;24.10;;;;;;4986414;28;21096;-91
2022/04/17 11:20:57;;;;;;;2.53;2.07;;;20.60;23.90;;;;;;4969978;28;21119;-89
2022/04/17 11:24:01;;;;;;;2.67;1.90;;;20.60;23.30;;;;;;4975395;28;20440;-88
2022/04/17 11:27:07;;;;;;;6.50;2.27;;;20.40;23.40;;;;;;4987437;28;21067;-89
2022/04/17 11:29:43;;;;;;;2.13;1.90;;;20.30;23.70;;;;;;4958743;28;20477;-91
2022/04/17 11:32:50;;;;;;;2.13;1.93;;;20.60;23.90;;;;;;4990401;28;20451;-87
2022/04/17 11:35:21;;;;;;;1.73;1.63;;;20.60;23.20;;;;;;4963346;28;20445;-87
2022/04/17 11:38:07;;;;;;;3.40;1.73;;;20.50;23.20;;;;;;4979878;28;20484;-87
2022/04/17 11:40:37;;;;;;;4.60;1.90;;;20.50;23.90;;;;;;4978483;28;20463;-89
2022/04/17 11:43:12;;;;;;;2.90;1.90;;;21.00;23.00;;;;;;4984785;28;20531;-86
2022/04/17 11:45:43;;;;;;;3.40;2.00;;;20.90;23.00;;;;;;4972802;28;20453;-89
2022/04/17 11:48:13;;;;;;;2.33;2.07;;;20.70;23.90;;;;;;4976309;28;20475;-86
2022/04/17 11:50:43;;;;;;;2.10;1.90;;;20.60;24.60;;;;;;4971777;28;20494;-88
2022/04/17 11:53:13;;;;;;;2.37;2.10;;;20.70;22.90;;;;;;4956728;28;20460;-88
2022/04/17 11:55:42;;;;;;;3.40;1.80;;;20.90;23.60;;;;;;4958597;28;20491;-88
2022/04/17 11:58:11;;;;;;;3.87;1.57;;;21.30;22.90;;;;;;4976999;28;20480;-87
2022/04/17 12:00:41;;;;;;;2.53;1.80;;;21.10;22.50;;;;;;4978532;28;20525;-87
2022/04/17 12:03:11;;;;;;;2.20;2.00;;;20.80;23.10;;;;;;4988586;28;20527;-87
2022/04/17 12:05:39;;;;;;;2.10;1.90;;;20.70;22.70;;;;;;4985662;28;20964;-85
2022/04/17 12:08:10;;;;;;;2.57;2.30;;;20.50;21.80;;;;;;4976697;28;20472;-89
2022/04/17 12:10:40;;;;;;;1.70;1.60;;;20.40;22.70;;;;;;4990608;28;20432;-88
2022/04/17 12:13:17;;;;;;;3.13;2.00;;;20.90;23.40;;;;;;4972429;28;20960;-88
2022/04/17 12:15:48;;;;;;;1.50;1.40;;;21.10;22.80;;;;;;4961551;28;20444;-89
2022/04/17 12:18:19;;;;;;;2.07;1.87;;;21.60;22.50;;;;;;4987566;28;20554;-88
2022/04/17 12:20:58;;;;;;;2.90;2.23;;;21.70;22.00;;;;;;4978731;28;20483;-90
2022/04/17 12:23:29;;;;;;;2.13;1.80;;;21.60;21.30;;;;;;4977814;28;20442;-90
2022/04/17 12:25:59;;;;;;;2.90;1.70;;;21.50;22.40;;;;;;4992054;28;20448;-89
2022/04/17 12:28:28;;;;;;;2.30;1.87;;;21.90;22.40;;;;;;4992048;28;21065;-89
2022/04/17 12:30:58;;;;;;;2.20;1.97;;;21.80;21.40;;;;;;4991883;28;21086;-90
2022/04/17 12:33:28;;;;;;;1.80;1.70;;;21.40;22.10;;;;;;4969314;28;20447;-87
2022/04/17 12:36:06;;;;;;;1.70;1.60;;;21.10;20.20;;;;;;4978870;28;20436;-86
2022/04/17 12:38:34;;;;;;;2.13;1.80;;;21.30;20.00;;;;;;4982880;28;20480;-89
2022/04/17 12:41:02;;;;;;;3.40;2.37;;;21.60;20.50;;;;;;4959994;28;21377;-91
2022/04/17 12:43:31;;;;;;;2.80;1.90;;;21.80;20.60;;;;;;4985153;28;21048;-88
2022/04/17 12:46:03;;;;;;;3.33;1.87;;;21.30;20.90;;;;;;4969838;28;21157;-89
2022/04/17 12:48:33;;;;;;;2.20;2.00;;;21.00;20.50;;;;;;4990555;28;20477;-90
2022/04/17 12:51:03;;;;;;;1.90;1.70;;;20.70;21.00;;;;;;4972143;28;20467;-86
2022/04/17 12:53:37;;;;;;;2.20;1.50;;;21.10;21.40;;;;;;4979887;28;20458;-86
2022/04/17 12:56:06;;;;;;;2.30;1.60;;;21.20;21.30;;;;;;4989461;28;20446;-87
2022/04/17 12:58:51;;;;;;;1.70;1.60;;;21.40;21.40;;;;;;4988746;28;20835;-88
2022/04/17 13:01:23;;;;;;;3.00;1.87;;;21.70;21.30;;;;;;4997554;28;20466;-89
2022/04/17 13:03:52;;;;;;;2.03;1.73;;;21.80;21.30;;;;;;4995999;28;20451;-88
2022/04/17 13:06:22;;;;;;;1.90;1.80;;;21.90;19.20;;;;;;4964966;28;20448;-90
2022/04/17 13:09:05;;;;;;;2.40;1.90;;;21.90;20.70;;;;;;4977596;28;20570;-92
2022/04/17 13:11:37;;;;;;;2.33;2.13;;;21.70;19.70;;;;;;4986326;28;21021;-89
2022/04/17 13:14:06;;;;;;;2.27;1.90;;;21.70;20.40;;;;;;4969484;28;20971;-88
2022/04/17 13:16:47;;;;;;;2.33;2.13;;;21.80;19.90;;;;;;4976528;28;20518;-92
2022/04/17 13:19:15;;;;;;;2.07;1.90;;;21.50;20.50;;;;;;4965404;28;20467;-88
2022/04/17 13:21:42;;;;;;;3.90;1.70;;;21.90;21.30;;;;;;4984128;28;20462;-88
2022/04/17 13:24:13;;;;;;;2.00;1.80;;;22.50;21.60;;;;;;4988204;28;20443;-89
2022/04/17 13:26:41;;;;;;;3.30;1.80;;;22.40;21.50;;;;;;4982188;28;20455;-89
2022/04/17 13:29:09;;;;;;;2.10;1.67;;;22.20;20.30;;;;;;4973109;28;20545;-88